sensor_id;sensor_type;location;lat;lon;timestamp;pressure;altitude;pressure_sealevel;temperature;humidity
20394;BME280;10356;50.544;9.642;2022-11-13T00:00:25;99540.75;;;3.81;100.00
20394;BME280;10356;50.544;9.642;2022-11-13T00:02:51;99540.72;;;3.83;100.00
20394;BME280;10356;50.544;9.642;2022-11-13T00:05:18;99533.91;;;3.80;100.00
20394;BME280;10356;50.544;9.642;2022-11-13T00:07:44;99538.13;;;3.83;100.00
20394;BME280;10356;50.544;9.642;2022-11-13T00:10:12;99536.44;;;3.82;100.00
20394;BME280;10356;50.544;9.642;2022-11-13T00:12:39;99529.66;;;3.79;100.00
20394;BME280;10356;50.544;9.642;2022-11-13T00:15:06;99527.06;;;3.79;100.00
20394;BME280;10356;50.544;9.642;2022-11-13T00:17:32;99522.91;;;3.75;100.00
20394;BME280;10356;50.544;9.642;2022-11-13T00:19:59;99527.16;;;3.76;100.00
20394;BME280;10356;50.544;9.642;2022-11-13T00:22:25;99527.25;;;3.73;100.00
20394;BME280;10356;50.544;9.642;2022-11-13T00:24:52;99520.31;;;3.75;100.00
20394;BME280;10356;50.544;9.642;2022-11-13T00:27:20;99517.03;;;3.70;100.00
20394;BME280;10356;50.544;9.642;2022-11-13T00:29:46;99522.28;;;3.67;100.00
20394;BME280;10356;50.544;9.642;2022-11-13T00:32:12;99515.44;;;3.66;100.00
20394;BME280;10356;50.544;9.642;2022-11-13T00:34:39;99517.25;;;3.63;100.00
20394;BME280;10356;50.544;9.642;2022-11-13T00:37:05;99522.41;;;3.63;100.00
20394;BME280;10356;50.544;9.642;2022-11-13T00:39:32;99513.03;;;3.60;100.00
20394;BME280;10356;50.544;9.642;2022-11-13T00:41:58;99512.16;;;3.61;100.00
20394;BME280;10356;50.544;9.642;2022-11-13T00:44:26;99505.47;;;3.54;100.00
20394;BME280;10356;50.544;9.642;2022-11-13T00:46:53;99502.91;;;3.54;100.00
20394;BME280;10356;50.544;9.642;2022-11-13T00:49:19;99501.13;;;3.56;100.00
20394;BME280;10356;50.544;9.642;2022-11-13T00:51:46;99502.84;;;3.56;100.00
20394;BME280;10356;50.544;9.642;2022-11-13T00:54:12;99497.56;;;3.60;100.00
20394;BME280;10356;50.544;9.642;2022-11-13T00:56:39;99495.09;;;3.57;100.00
20394;BME280;10356;50.544;9.642;2022-11-13T00:59:05;99495.97;;;3.56;100.00
20394;BME280;10356;50.544;9.642;2022-11-13T01:01:33;99500.31;;;3.54;100.00
20394;BME280;10356;50.544;9.642;2022-11-13T01:03:59;99493.63;;;3.49;100.00
20394;BME280;10356;50.544;9.642;2022-11-13T01:06:27;99502.19;;;3.49;100.00
20394;BME280;10356;50.544;9.642;2022-11-13T01:08:54;99494.50;;;3.48;100.00
20394;BME280;10356;50.544;9.642;2022-11-13T01:11:23;99498.09;;;3.42;100.00
20394;BME280;10356;50.544;9.642;2022-11-13T01:13:50;99500.78;;;3.39;100.00
20394;BME280;10356;50.544;9.642;2022-11-13T01:16:20;99502.63;;;3.34;100.00
20394;BME280;10356;50.544;9.642;2022-11-13T01:18:48;99498.38;;;3.33;100.00
20394;BME280;10356;50.544;9.642;2022-11-13T01:21:17;99482.03;;;3.34;100.00
20394;BME280;10356;50.544;9.642;2022-11-13T01:23:44;99482.94;;;3.31;100.00
20394;BME280;10356;50.544;9.642;2022-11-13T01:26:13;99483.84;;;3.30;100.00
20394;BME280;10356;50.544;9.642;2022-11-13T01:28:41;99483.78;;;3.32;100.00
20394;BME280;10356;50.544;9.642;2022-11-13T01:31:10;99475.19;;;3.33;100.00
20394;BME280;10356;50.544;9.642;2022-11-13T01:33:37;99488.94;;;3.32;100.00
20394;BME280;10356;50.544;9.642;2022-11-13T01:36:08;99477.78;;;3.31;100.00
20394;BME280;10356;50.544;9.642;2022-11-13T01:38:36;99476.78;;;3.37;100.00
20394;BME280;10356;50.544;9.642;2022-11-13T01:41:03;99477.63;;;3.37;100.00
20394;BME280;10356;50.544;9.642;2022-11-13T01:43:31;99481.09;;;3.36;100.00
20394;BME280;10356;50.544;9.642;2022-11-13T01:46:07;99475.38;;;3.27;100.00
20394;BME280;10356;50.544;9.642;2022-11-13T01:48:36;99473.66;;;3.26;100.00
20394;BME280;10356;50.544;9.642;2022-11-13T01:51:09;99469.38;;;3.26;100.00
20394;BME280;10356;50.544;9.642;2022-11-13T01:53:38;99461.69;;;3.25;100.00
20394;BME280;10356;50.544;9.642;2022-11-13T01:56:06;99467.59;;;3.28;100.00
20394;BME280;10356;50.544;9.642;2022-11-13T01:58:32;99462.56;;;3.24;100.00
20394;BME280;10356;50.544;9.642;2022-11-13T02:00:59;99459.13;;;3.25;100.00
20394;BME280;10356;50.544;9.642;2022-11-13T02:03:26;99458.41;;;3.20;100.00
20394;BME280;10356;50.544;9.642;2022-11-13T02:05:53;99460.97;;;3.20;100.00
20394;BME280;10356;50.544;9.642;2022-11-13T02:08:21;99454.28;;;3.14;100.00
20394;BME280;10356;50.544;9.642;2022-11-13T02:10:48;99454.31;;;3.13;100.00
20394;BME280;10356;50.544;9.642;2022-11-13T02:13:14;99455.31;;;3.07;100.00
20394;BME280;10356;50.544;9.642;2022-11-13T02:15:42;99455.19;;;3.12;100.00
20394;BME280;10356;50.544;9.642;2022-11-13T02:18:11;99448.28;;;3.14;100.00
20394;BME280;10356;50.544;9.642;2022-11-13T02:20:46;99443.03;;;3.17;100.00
20394;BME280;10356;50.544;9.642;2022-11-13T02:23:22;99443.16;;;3.12;100.00
20394;BME280;10356;50.544;9.642;2022-11-13T02:25:52;99438.88;;;3.13;100.00
20394;BME280;10356;50.544;9.642;2022-11-13T02:28:19;99445.00;;;3.09;100.00
20394;BME280;10356;50.544;9.642;2022-11-13T02:30:46;99443.22;;;3.11;100.00
20394;BME280;10356;50.544;9.642;2022-11-13T02:33:22;99443.13;;;3.14;100.00
20394;BME280;10356;50.544;9.642;2022-11-13T02:35:49;99429.63;;;3.06;100.00
20394;BME280;10356;50.544;9.642;2022-11-13T02:38:16;99434.69;;;3.09;100.00
20394;BME280;10356;50.544;9.642;2022-11-13T02:40:42;99433.91;;;3.05;100.00
20394;BME280;10356;50.544;9.642;2022-11-13T02:43:10;99445.06;;;3.06;100.00
20394;BME280;10356;50.544;9.642;2022-11-13T02:45:37;99440.81;;;3.05;100.00
20394;BME280;10356;50.544;9.642;2022-11-13T02:48:04;99434.88;;;3.03;100.00
20394;BME280;10356;50.544;9.642;2022-11-13T02:50:31;99438.31;;;3.02;100.00
20394;BME280;10356;50.544;9.642;2022-11-13T02:52:58;99437.53;;;3.00;100.00
20394;BME280;10356;50.544;9.642;2022-11-13T02:55:25;99429.78;;;3.00;100.00
20394;BME280;10356;50.544;9.642;2022-11-13T02:57:51;99438.41;;;2.99;100.00
20394;BME280;10356;50.544;9.642;2022-11-13T03:00:19;99429.78;;;3.00;100.00
20394;BME280;10356;50.544;9.642;2022-11-13T03:02:46;99427.97;;;3.03;100.00
20394;BME280;10356;50.544;9.642;2022-11-13T03:05:13;99433.97;;;3.04;100.00
20394;BME280;10356;50.544;9.642;2022-11-13T03:07:39;99437.56;;;2.98;100.00
20394;BME280;10356;50.544;9.642;2022-11-13T03:10:07;99436.66;;;3.01;100.00
20394;BME280;10356;50.544;9.642;2022-11-13T03:12:34;99431.41;;;3.04;100.00
20394;BME280;10356;50.544;9.642;2022-11-13T03:15:01;99423.63;;;3.05;100.00
20394;BME280;10356;50.544;9.642;2022-11-13T03:17:31;99423.44;;;3.11;100.00
20394;BME280;10356;50.544;9.642;2022-11-13T03:19:57;99427.94;;;3.05;100.00
20394;BME280;10356;50.544;9.642;2022-11-13T03:22:24;99426.34;;;3.01;100.00
20394;BME280;10356;50.544;9.642;2022-11-13T03:24:50;99420.41;;;2.97;100.00
20394;BME280;10356;50.544;9.642;2022-11-13T03:27:17;99424.75;;;2.97;100.00
20394;BME280;10356;50.544;9.642;2022-11-13T03:29:44;99414.53;;;2.94;100.00
20394;BME280;10356;50.544;9.642;2022-11-13T03:32:10;99423.97;;;2.93;100.00
20394;BME280;10356;50.544;9.642;2022-11-13T03:34:38;99428.38;;;2.90;100.00
20394;BME280;10356;50.544;9.642;2022-11-13T03:37:05;99426.75;;;2.86;100.00
20394;BME280;10356;50.544;9.642;2022-11-13T03:39:31;99423.16;;;2.93;100.00
20394;BME280;10356;50.544;9.642;2022-11-13T03:41:58;99413.03;;;2.87;100.00
20394;BME280;10356;50.544;9.642;2022-11-13T03:44:24;99409.03;;;2.75;100.00
20394;BME280;10356;50.544;9.642;2022-11-13T03:46:50;99413.38;;;2.75;100.00
20394;BME280;10356;50.544;9.642;2022-11-13T03:49:17;99417.81;;;2.68;100.00
20394;BME280;10356;50.544;9.642;2022-11-13T03:51:45;99413.44;;;2.72;100.00
20394;BME280;10356;50.544;9.642;2022-11-13T03:54:11;99410.72;;;2.45;100.00
20394;BME280;10356;50.544;9.642;2022-11-13T03:56:38;99406.16;;;2.55;100.00
20394;BME280;10356;50.544;9.642;2022-11-13T03:59:04;99406.09;;;2.58;100.00
20394;BME280;10356;50.544;9.642;2022-11-13T04:01:31;99403.53;;;2.56;100.00
20394;BME280;10356;50.544;9.642;2022-11-13T04:03:57;99402.59;;;2.61;100.00
20394;BME280;10356;50.544;9.642;2022-11-13T04:06:24;99400.16;;;2.54;100.00
20394;BME280;10356;50.544;9.642;2022-11-13T04:08:52;99405.25;;;2.58;100.00
20394;BME280;10356;50.544;9.642;2022-11-13T04:11:19;99406.94;;;2.59;100.00
20394;BME280;10356;50.544;9.642;2022-11-13T04:13:45;99394.78;;;2.64;100.00
20394;BME280;10356;50.544;9.642;2022-11-13T04:16:11;99398.13;;;2.67;100.00
20394;BME280;10356;50.544;9.642;2022-11-13T04:18:38;99400.50;;;2.73;100.00
20394;BME280;10356;50.544;9.642;2022-11-13T04:21:05;99397.25;;;2.68;100.00
20394;BME280;10356;50.544;9.642;2022-11-13T04:23:31;99387.88;;;2.66;100.00
20394;BME280;10356;50.544;9.642;2022-11-13T04:25:59;99383.84;;;2.55;100.00
20394;BME280;10356;50.544;9.642;2022-11-13T04:28:26;99385.53;;;2.58;100.00
20394;BME280;10356;50.544;9.642;2022-11-13T04:30:53;99395.72;;;2.61;100.00
20394;BME280;10356;50.544;9.642;2022-11-13T04:33:20;99390.78;;;2.53;100.00
20394;BME280;10356;50.544;9.642;2022-11-13T04:35:46;99400.31;;;2.48;100.00
20394;BME280;10356;50.544;9.642;2022-11-13T04:38:13;99388.38;;;2.47;100.00
20394;BME280;10356;50.544;9.642;2022-11-13T04:40:41;99393.69;;;2.41;100.00
20394;BME280;10356;50.544;9.642;2022-11-13T04:43:09;99392.81;;;2.41;100.00
20394;BME280;10356;50.544;9.642;2022-11-13T04:45:35;99389.34;;;2.43;100.00
20394;BME280;10356;50.544;9.642;2022-11-13T04:48:02;99386.66;;;2.46;100.00
20394;BME280;10356;50.544;9.642;2022-11-13T04:50:29;99386.75;;;2.43;100.00
20394;BME280;10356;50.544;9.642;2022-11-13T04:52:56;99381.56;;;2.45;100.00
20394;BME280;10356;50.544;9.642;2022-11-13T04:55:22;99372.94;;;2.47;100.00
20394;BME280;10356;50.544;9.642;2022-11-13T04:57:49;99371.28;;;2.45;100.00
20394;BME280;10356;50.544;9.642;2022-11-13T05:00:17;99366.94;;;2.47;100.00
20394;BME280;10356;50.544;9.642;2022-11-13T05:02:44;99366.03;;;2.49;100.00
20394;BME280;10356;50.544;9.642;2022-11-13T05:05:11;99360.94;;;2.46;100.00
20394;BME280;10356;50.544;9.642;2022-11-13T05:07:37;99362.97;;;2.35;100.00
20394;BME280;10356;50.544;9.642;2022-11-13T05:10:04;99367.44;;;2.29;100.00
20394;BME280;10356;50.544;9.642;2022-11-13T05:12:31;99357.25;;;2.24;100.00
20394;BME280;10356;50.544;9.642;2022-11-13T05:14:57;99350.94;;;2.05;100.00
20394;BME280;10356;50.544;9.642;2022-11-13T05:17:25;99355.91;;;2.11;100.00
20394;BME280;10356;50.544;9.642;2022-11-13T05:19:52;99353.22;;;2.16;100.00
20394;BME280;10356;50.544;9.642;2022-11-13T05:22:18;99358.78;;;1.99;100.00
20394;BME280;10356;50.544;9.642;2022-11-13T05:24:45;99350.22;;;1.99;100.00
20394;BME280;10356;50.544;9.642;2022-11-13T05:27:11;99349.44;;;1.97;100.00
20394;BME280;10356;50.544;9.642;2022-11-13T05:29:38;99346.75;;;2.01;100.00
20394;BME280;10356;50.544;9.642;2022-11-13T05:32:04;99344.09;;;2.04;100.00
20394;BME280;10356;50.544;9.642;2022-11-13T05:34:32;99344.38;;;1.94;100.00
20394;BME280;10356;50.544;9.642;2022-11-13T05:36:58;99348.56;;;1.96;100.00
20394;BME280;10356;50.544;9.642;2022-11-13T05:39:25;99347.94;;;1.88;100.00
20394;BME280;10356;50.544;9.642;2022-11-13T05:41:51;99340.22;;;1.88;100.00
20394;BME280;10356;50.544;9.642;2022-11-13T05:44:18;99336.94;;;1.83;100.00
20394;BME280;10356;50.544;9.642;2022-11-13T05:46:44;99331.03;;;1.80;100.00
20394;BME280;10356;50.544;9.642;2022-11-13T05:49:11;99330.25;;;1.76;100.00
20394;BME280;10356;50.544;9.642;2022-11-13T05:51:39;99339.63;;;1.79;100.00
20394;BME280;10356;50.544;9.642;2022-11-13T05:54:05;99331.97;;;1.77;100.00
20394;BME280;10356;50.544;9.642;2022-11-13T05:56:33;99327.94;;;1.67;100.00
20394;BME280;10356;50.544;9.642;2022-11-13T05:59:00;99327.13;;;1.65;100.00
20394;BME280;10356;50.544;9.642;2022-11-13T06:01:29;99326.88;;;1.74;100.00
20394;BME280;10356;50.544;9.642;2022-11-13T06:03:57;99319.41;;;1.65;100.00
20394;BME280;10356;50.544;9.642;2022-11-13T06:06:26;99313.31;;;1.69;100.00
20394;BME280;10356;50.544;9.642;2022-11-13T06:08:55;99315.94;;;1.66;100.00
20394;BME280;10356;50.544;9.642;2022-11-13T06:11:23;99313.63;;;1.57;100.00
20394;BME280;10356;50.544;9.642;2022-11-13T06:13:52;99310.97;;;1.60;100.00
20394;BME280;10356;50.544;9.642;2022-11-13T06:16:20;99314.34;;;1.62;100.00
20394;BME280;10356;50.544;9.642;2022-11-13T06:18:48;99307.53;;;1.61;100.00
20394;BME280;10356;50.544;9.642;2022-11-13T06:21:17;99306.63;;;1.62;100.00
20394;BME280;10356;50.544;9.642;2022-11-13T06:23:43;99305.75;;;1.63;100.00
20394;BME280;10356;50.544;9.642;2022-11-13T06:26:13;99308.19;;;1.69;100.00
20394;BME280;10356;50.544;9.642;2022-11-13T06:28:41;99303.25;;;1.60;100.00
20394;BME280;10356;50.544;9.642;2022-11-13T06:31:10;99305.03;;;1.58;100.00
20394;BME280;10356;50.544;9.642;2022-11-13T06:33:37;99304.09;;;1.60;100.00
20394;BME280;10356;50.544;9.642;2022-11-13T06:36:05;99305.06;;;1.56;100.00
20394;BME280;10356;50.544;9.642;2022-11-13T06:38:33;99302.44;;;1.58;100.00
20394;BME280;10356;50.544;9.642;2022-11-13T06:41:01;99300.03;;;1.53;100.00
20394;BME280;10356;50.544;9.642;2022-11-13T06:43:29;99305.16;;;1.52;100.00
20394;BME280;10356;50.544;9.642;2022-11-13T06:45:56;99293.06;;;1.57;100.00
20394;BME280;10356;50.544;9.642;2022-11-13T06:48:24;99299.81;;;1.61;100.00
20394;BME280;10356;50.544;9.642;2022-11-13T06:50:50;99300.53;;;1.66;100.00
20394;BME280;10356;50.544;9.642;2022-11-13T06:53:17;99299.88;;;1.59;100.00
20394;BME280;10356;50.544;9.642;2022-11-13T06:55:44;99297.22;;;1.62;100.00
20394;BME280;10356;50.544;9.642;2022-11-13T06:58:11;99287.03;;;1.59;100.00
20394;BME280;10356;50.544;9.642;2022-11-13T07:00:39;99298.38;;;1.51;100.00
20394;BME280;10356;50.544;9.642;2022-11-13T07:03:14;99292.63;;;1.41;100.00
20394;BME280;10356;50.544;9.642;2022-11-13T07:05:41;99292.66;;;1.38;100.00
20394;BME280;10356;50.544;9.642;2022-11-13T07:08:07;99288.16;;;1.48;100.00
20394;BME280;10356;50.544;9.642;2022-11-13T07:10:34;99284.63;;;1.52;100.00
20394;BME280;10356;50.544;9.642;2022-11-13T07:13:00;99280.44;;;1.48;100.00
20394;BME280;10356;50.544;9.642;2022-11-13T07:15:27;99282.25;;;1.44;100.00
20394;BME280;10356;50.544;9.642;2022-11-13T07:17:58;99274.81;;;1.34;100.00
20394;BME280;10356;50.544;9.642;2022-11-13T07:20:25;99279.78;;;1.41;100.00
20394;BME280;10356;50.544;9.642;2022-11-13T07:22:55;99277.16;;;1.43;100.00
20394;BME280;10356;50.544;9.642;2022-11-13T07:25:22;99277.81;;;1.51;100.00
20394;BME280;10356;50.544;9.642;2022-11-13T07:27:48;99273.09;;;1.34;100.00
20394;BME280;10356;50.544;9.642;2022-11-13T07:30:16;99276.97;;;1.50;100.00
20394;BME280;10356;50.544;9.642;2022-11-13T07:32:42;99273.50;;;1.53;100.00
20394;BME280;10356;50.544;9.642;2022-11-13T07:35:10;99264.31;;;1.43;100.00
20394;BME280;10356;50.544;9.642;2022-11-13T07:37:37;99263.59;;;1.38;100.00
20394;BME280;10356;50.544;9.642;2022-11-13T07:40:04;99261.53;;;1.52;100.00
20394;BME280;10356;50.544;9.642;2022-11-13T07:42:31;99258.00;;;1.56;100.00
20394;BME280;10356;50.544;9.642;2022-11-13T07:44:58;99253.59;;;1.61;100.00
20394;BME280;10356;50.544;9.642;2022-11-13T07:47:24;99253.59;;;1.61;100.00
20394;BME280;10356;50.544;9.642;2022-11-13T07:49:51;99256.06;;;1.64;100.00
20394;BME280;10356;50.544;9.642;2022-11-13T07:52:18;99258.72;;;1.61;100.00
20394;BME280;10356;50.544;9.642;2022-11-13T07:54:45;99249.91;;;1.71;100.00
20394;BME280;10356;50.544;9.642;2022-11-13T07:57:12;99254.88;;;1.77;100.00
20394;BME280;10356;50.544;9.642;2022-11-13T07:59:38;99254.88;;;1.77;100.00
20394;BME280;10356;50.544;9.642;2022-11-13T08:02:05;99248.91;;;1.77;100.00
20394;BME280;10356;50.544;9.642;2022-11-13T08:04:32;99249.59;;;1.83;100.00
20394;BME280;10356;50.544;9.642;2022-11-13T08:06:58;99250.34;;;1.87;100.00
20394;BME280;10356;50.544;9.642;2022-11-13T08:09:26;99249.78;;;2.08;100.00
20394;BME280;10356;50.544;9.642;2022-11-13T08:11:52;99256.69;;;2.06;100.00
20394;BME280;10356;50.544;9.642;2022-11-13T08:14:19;99256.00;;;1.99;100.00
20394;BME280;10356;50.544;9.642;2022-11-13T08:16:45;99252.47;;;2.03;100.00
20394;BME280;10356;50.544;9.642;2022-11-13T08:19:12;99257.03;;;2.23;100.00
20394;BME280;10356;50.544;9.642;2022-11-13T08:21:38;99255.94;;;2.01;100.00
20394;BME280;10356;50.544;9.642;2022-11-13T08:24:05;99254.81;;;2.11;100.00
20394;BME280;10356;50.544;9.642;2022-11-13T08:26:36;99249.28;;;2.24;100.00
20394;BME280;10356;50.544;9.642;2022-11-13T08:29:03;99246.75;;;2.23;100.00
20394;BME280;10356;50.544;9.642;2022-11-13T08:31:29;99245.91;;;2.22;100.00
20394;BME280;10356;50.544;9.642;2022-11-13T08:33:56;99250.25;;;2.20;100.00
20394;BME280;10356;50.544;9.642;2022-11-13T08:36:22;99253.72;;;2.19;100.00
20394;BME280;10356;50.544;9.642;2022-11-13T08:38:49;99237.94;;;2.31;100.00
20394;BME280;10356;50.544;9.642;2022-11-13T08:41:15;99240.53;;;2.31;100.00
20394;BME280;10356;50.544;9.642;2022-11-13T08:43:43;99240.69;;;2.25;100.00
20394;BME280;10356;50.544;9.642;2022-11-13T08:46:09;99230.72;;;2.15;100.00
20394;BME280;10356;50.544;9.642;2022-11-13T08:48:36;99231.22;;;2.27;100.00
20394;BME280;10356;50.544;9.642;2022-11-13T08:51:03;99227.13;;;2.49;100.00
20394;BME280;10356;50.544;9.642;2022-11-13T08:53:30;99229.28;;;2.63;100.00
20394;BME280;10356;50.544;9.642;2022-11-13T08:55:59;99225.47;;;2.76;100.00
20394;BME280;10356;50.544;9.642;2022-11-13T08:58:25;99215.47;;;2.95;100.00
20394;BME280;10356;50.544;9.642;2022-11-13T09:00:58;99211.31;;;3.17;100.00
20394;BME280;10356;50.544;9.642;2022-11-13T09:03:25;99216.47;;;2.89;100.00
20394;BME280;10356;50.544;9.642;2022-11-13T09:05:51;99210.06;;;3.02;100.00
20394;BME280;10356;50.544;9.642;2022-11-13T09:08:17;99207.56;;;2.99;100.00
20394;BME280;10356;50.544;9.642;2022-11-13T09:10:44;99206.88;;;3.20;100.00
20394;BME280;10356;50.544;9.642;2022-11-13T09:13:11;99199.03;;;3.25;100.00
20394;BME280;10356;50.544;9.642;2022-11-13T09:15:38;99198.63;;;3.37;100.00
20394;BME280;10356;50.544;9.642;2022-11-13T09:18:06;99191.88;;;3.33;100.00
20394;BME280;10356;50.544;9.642;2022-11-13T09:20:32;99193.34;;;3.40;100.00
20394;BME280;10356;50.544;9.642;2022-11-13T09:23:00;99191.34;;;3.48;100.00
20394;BME280;10356;50.544;9.642;2022-11-13T09:25:29;99183.47;;;3.53;100.00
20394;BME280;10356;50.544;9.642;2022-11-13T09:27:57;99176.63;;;3.27;100.00
20394;BME280;10356;50.544;9.642;2022-11-13T09:30:24;99175.91;;;3.48;100.00
20394;BME280;10356;50.544;9.642;2022-11-13T09:32:52;99173.66;;;3.39;100.00
20394;BME280;10356;50.544;9.642;2022-11-13T09:35:20;99174.09;;;3.50;100.00
20394;BME280;10356;50.544;9.642;2022-11-13T09:37:58;99177.06;;;3.64;100.00
20394;BME280;10356;50.544;9.642;2022-11-13T09:40:29;99171.47;;;3.76;100.00
20394;BME280;10356;50.544;9.642;2022-11-13T09:42:56;99169.25;;;3.90;100.00
20394;BME280;10356;50.544;9.642;2022-11-13T09:45:23;99162.50;;;3.86;100.00
20394;BME280;10356;50.544;9.642;2022-11-13T09:47:50;99163.81;;;3.98;100.00
20394;BME280;10356;50.544;9.642;2022-11-13T09:50:23;99164.09;;;4.13;100.00
20394;BME280;10356;50.544;9.642;2022-11-13T09:52:50;99158.94;;;4.13;100.00
20394;BME280;10356;50.544;9.642;2022-11-13T09:55:19;99163.41;;;4.08;100.00
20394;BME280;10356;50.544;9.642;2022-11-13T09:57:50;99157.16;;;4.15;100.00
20394;BME280;10356;50.544;9.642;2022-11-13T10:00:19;99160.25;;;4.02;100.00
20394;BME280;10356;50.544;9.642;2022-11-13T10:02:57;99152.19;;;4.33;100.00
20394;BME280;10356;50.544;9.642;2022-11-13T10:05:44;99150.66;;;4.05;100.00
20394;BME280;10356;50.544;9.642;2022-11-13T10:08:14;99145.47;;;4.28;100.00
20394;BME280;10356;50.544;9.642;2022-11-13T10:10:57;99137.94;;;4.46;100.00
20394;BME280;10356;50.544;9.642;2022-11-13T10:13:26;99141.53;;;4.63;100.00
20394;BME280;10356;50.544;9.642;2022-11-13T10:15:59;99135.94;;;4.74;100.00
20394;BME280;10356;50.544;9.642;2022-11-13T10:18:29;99136.19;;;4.68;100.00
20394;BME280;10356;50.544;9.642;2022-11-13T10:21:08;99123.13;;;4.71;100.00
20394;BME280;10356;50.544;9.642;2022-11-13T10:23:37;99118.41;;;4.82;100.00
20394;BME280;10356;50.544;9.642;2022-11-13T10:26:12;99121.09;;;5.00;100.00
20394;BME280;10356;50.544;9.642;2022-11-13T10:28:39;99109.13;;;5.18;100.00
20394;BME280;10356;50.544;9.642;2022-11-13T10:31:07;99098.81;;;5.18;99.55
20394;BME280;10356;50.544;9.642;2022-11-13T10:33:34;99098.94;;;5.15;99.75
20394;BME280;10356;50.544;9.642;2022-11-13T10:36:07;99098.56;;;5.24;99.60
20394;BME280;10356;50.544;9.642;2022-11-13T10:38:42;99088.09;;;5.27;100.00
20394;BME280;10356;50.544;9.642;2022-11-13T10:41:12;99084.19;;;5.57;100.00
20394;BME280;10356;50.544;9.642;2022-11-13T10:43:50;99078.53;;;5.68;100.00
20394;BME280;10356;50.544;9.642;2022-11-13T10:46:18;99074.38;;;5.45;100.00
20394;BME280;10356;50.544;9.642;2022-11-13T10:48:45;99067.66;;;5.41;100.00
20394;BME280;10356;50.544;9.642;2022-11-13T10:51:22;99078.66;;;5.65;100.00
20394;BME280;10356;50.544;9.642;2022-11-13T10:53:49;99075.63;;;5.75;100.00
20394;BME280;10356;50.544;9.642;2022-11-13T10:56:25;99069.19;;;5.65;100.00
20394;BME280;10356;50.544;9.642;2022-11-13T10:59:00;99066.28;;;5.91;100.00
20394;BME280;10356;50.544;9.642;2022-11-13T11:01:27;99055.22;;;6.07;99.46
20394;BME280;10356;50.544;9.642;2022-11-13T11:03:53;99052.63;;;6.07;99.70
20394;BME280;10356;50.544;9.642;2022-11-13T11:06:30;99046.94;;;6.36;99.18
20394;BME280;10356;50.544;9.642;2022-11-13T11:09:05;99033.31;;;6.49;97.42
20394;BME280;10356;50.544;9.642;2022-11-13T11:11:32;99034.78;;;6.55;97.42
20394;BME280;10356;50.544;9.642;2022-11-13T11:14:19;99034.47;;;6.95;96.04
20394;BME280;10356;50.544;9.642;2022-11-13T11:16:48;99023.78;;;7.18;93.78
20394;BME280;10356;50.544;9.642;2022-11-13T11:19:19;99030.78;;;7.33;92.99
20394;BME280;10356;50.544;9.642;2022-11-13T11:21:50;99030.25;;;7.59;92.84
20394;BME280;10356;50.544;9.642;2022-11-13T11:24:23;99020.91;;;7.73;91.98
20394;BME280;10356;50.544;9.642;2022-11-13T11:26:58;99011.38;;;7.73;90.78
20394;BME280;10356;50.544;9.642;2022-11-13T11:29:31;99009.34;;;7.78;91.28
20394;BME280;10356;50.544;9.642;2022-11-13T11:32:02;99004.63;;;7.53;92.14
20394;BME280;10356;50.544;9.642;2022-11-13T11:34:35;99001.72;;;8.06;91.15
20394;BME280;10356;50.544;9.642;2022-11-13T11:37:14;98991.84;;;8.44;88.30
20394;BME280;10356;50.544;9.642;2022-11-13T11:39:46;98993.03;;;8.68;87.35
20394;BME280;10356;50.544;9.642;2022-11-13T11:42:21;98990.44;;;8.68;87.21
20394;BME280;10356;50.544;9.642;2022-11-13T11:45:04;98974.69;;;8.85;86.40
20394;BME280;10356;50.544;9.642;2022-11-13T11:47:41;98968.03;;;8.95;86.08
20394;BME280;10356;50.544;9.642;2022-11-13T11:50:12;98968.72;;;9.13;85.52
20394;BME280;10356;50.544;9.642;2022-11-13T11:52:54;98947.34;;;9.22;84.44
20394;BME280;10356;50.544;9.642;2022-11-13T11:55:33;98937.78;;;9.22;86.18
20394;BME280;10356;50.544;9.642;2022-11-13T11:58:15;98930.59;;;9.40;86.17
20394;BME280;10356;50.544;9.642;2022-11-13T12:00:49;98931.44;;;9.41;85.98
20394;BME280;10356;50.544;9.642;2022-11-13T12:03:45;98921.41;;;9.49;86.09
20394;BME280;10356;50.544;9.642;2022-11-13T12:06:18;98908.34;;;9.22;88.66
20394;BME280;10356;50.544;9.642;2022-11-13T12:08:55;98906.38;;;9.25;88.68
20394;BME280;10356;50.544;9.642;2022-11-13T12:11:29;98911.28;;;9.30;87.07
20394;BME280;10356;50.544;9.642;2022-11-13T12:14:06;98900.13;;;9.42;85.90
20394;BME280;10356;50.544;9.642;2022-11-13T12:16:39;98895.19;;;9.52;86.15
20394;BME280;10356;50.544;9.642;2022-11-13T12:19:16;98888.13;;;9.54;85.58
20394;BME280;10356;50.544;9.642;2022-11-13T12:21:53;98891.19;;;9.60;85.39
20394;BME280;10356;50.544;9.642;2022-11-13T12:24:40;98893.88;;;9.59;85.89
20394;BME280;10356;50.544;9.642;2022-11-13T12:27:19;98890.19;;;9.49;85.46
20394;BME280;10356;50.544;9.642;2022-11-13T12:29:55;98884.34;;;9.72;85.59
20394;BME280;10356;50.544;9.642;2022-11-13T12:32:38;98876.09;;;9.92;84.65
20394;BME280;10356;50.544;9.642;2022-11-13T12:35:13;98869.72;;;10.10;83.46
20394;BME280;10356;50.544;9.642;2022-11-13T12:37:46;98861.50;;;10.16;83.66
20394;BME280;10356;50.544;9.642;2022-11-13T12:40:26;98863.53;;;10.25;82.28
20394;BME280;10356;50.544;9.642;2022-11-13T12:43:01;98854.47;;;10.31;82.06
20394;BME280;10356;50.544;9.642;2022-11-13T12:45:48;98851.66;;;10.34;81.59
20394;BME280;10356;50.544;9.642;2022-11-13T12:48:24;98855.09;;;10.47;80.88
20394;BME280;10356;50.544;9.642;2022-11-13T12:51:02;98848.56;;;10.54;79.65
20394;BME280;10356;50.544;9.642;2022-11-13T12:53:30;98846.38;;;10.60;79.65
20394;BME280;10356;50.544;9.642;2022-11-13T12:56:14;98843.84;;;10.71;78.65
20394;BME280;10356;50.544;9.642;2022-11-13T12:58:51;98847.06;;;10.75;78.01
20394;BME280;10356;50.544;9.642;2022-11-13T13:01:19;98844.28;;;10.78;77.95
20394;BME280;10356;50.544;9.642;2022-11-13T13:04:14;98842.28;;;10.81;78.12
20394;BME280;10356;50.544;9.642;2022-11-13T13:06:54;98840.41;;;10.83;78.53
20394;BME280;10356;50.544;9.642;2022-11-13T13:09:33;98835.72;;;10.76;79.42
20394;BME280;10356;50.544;9.642;2022-11-13T13:12:09;98837.06;;;10.69;79.71